Time;durP1;ratioP1;P1;durP2;ratioP2;P2;SDS_P1;SDS_P2;PMS_P1;PMS_P2;Temp;Humidity;BMP_temperature;BMP_pressure;BME280_temperature;BME280_humidity;BME280_pressure;Samples;Min_cycle;Max_cycle;Signal;HPM_P1;HPM_P2
2021/03/24 00:01:36;;;;;;;17.93;11.43;;;7.90;54.50;;;;;;5050520;28;20477;-42
2021/03/24 00:04:01;;;;;;;18.83;11.97;;;7.90;54.50;;;;;;5045575;28;20671;-41
2021/03/24 00:06:27;;;;;;;17.33;10.97;;;8.00;54.50;;;;;;5050475;28;20236;-42
2021/03/24 00:08:52;;;;;;;19.23;12.40;;;8.10;54.10;;;;;;5052815;28;20220;-42
2021/03/24 00:11:18;;;;;;;19.90;13.63;;;7.80;54.30;;;;;;5038944;28;20193;-41
2021/03/24 00:13:43;;;;;;;17.57;11.63;;;7.60;55.30;;;;;;5047502;28;20242;-42
2021/03/24 00:16:11;;;;;;;16.27;10.93;;;7.60;55.40;;;;;;5042576;28;20609;-42
2021/03/24 00:18:37;;;;;;;18.77;11.90;;;7.70;55.30;;;;;;5038712;28;20258;-42
2021/03/24 00:21:03;;;;;;;21.10;11.53;;;7.70;55.00;;;;;;5045960;28;20931;-42
2021/03/24 00:23:29;;;;;;;16.90;12.10;;;7.70;55.00;;;;;;5040991;28;20652;-42
2021/03/24 00:25:55;;;;;;;14.57;10.60;;;7.60;55.00;;;;;;5051812;28;20431;-42
2021/03/24 00:28:21;;;;;;;16.73;11.33;;;7.50;55.30;;;;;;5050761;28;20729;-42
2021/03/24 00:30:49;;;;;;;13.97;9.80;;;7.40;55.50;;;;;;5049944;28;20201;-42
2021/03/24 00:33:21;;;;;;;20.37;11.20;;;7.20;56.20;;;;;;5046176;28;20441;-42
2021/03/24 00:35:48;;;;;;;16.10;11.97;;;7.20;56.40;;;;;;5047945;28;20435;-44
2021/03/24 00:38:15;;;;;;;15.47;11.30;;;7.20;56.30;;;;;;5042860;28;20431;-42
2021/03/24 00:40:43;;;;;;;18.93;11.20;;;7.40;56.00;;;;;;5049710;28;20522;-42
2021/03/24 00:43:09;;;;;;;18.60;12.00;;;7.40;55.60;;;;;;5041671;28;20423;-42
2021/03/24 00:45:36;;;;;;;18.50;11.53;;;7.50;55.60;;;;;;5047231;28;20431;-43
2021/03/24 00:48:04;;;;;;;21.70;12.20;;;7.50;55.00;;;;;;5048981;28;20523;-42
2021/03/24 00:50:32;;;;;;;15.43;10.60;;;7.30;55.30;;;;;;5046302;28;21047;-42
2021/03/24 00:52:58;;;;;;;16.70;11.43;;;7.10;55.70;;;;;;5048625;28;20521;-42
2021/03/24 00:55:24;;;;;;;14.00;10.80;;;7.00;56.20;;;;;;5046369;28;20519;-42
2021/03/24 00:57:50;;;;;;;14.87;11.17;;;6.90;56.10;;;;;;5043242;28;20231;-42
2021/03/24 01:00:21;;;;;;;16.63;11.83;;;7.00;56.20;;;;;;5049234;28;20200;-42
2021/03/24 01:02:46;;;;;;;17.27;11.37;;;7.00;56.10;;;;;;5050496;28;20600;-42
2021/03/24 01:05:17;;;;;;;17.27;12.17;;;7.10;56.20;;;;;;5045470;28;20443;-42
2021/03/24 01:07:47;;;;;;;19.00;11.13;;;7.20;55.80;;;;;;5039449;28;20244;-42
2021/03/24 01:10:17;;;;;;;18.00;11.13;;;7.30;55.30;;;;;;5045363;28;20546;-42
2021/03/24 01:12:43;;;;;;;20.20;11.97;;;7.40;55.00;;;;;;5038245;28;20442;-42
2021/03/24 01:15:10;;;;;;;15.47;11.30;;;7.30;54.60;;;;;;5044226;28;20931;-42
2021/03/24 01:17:36;;;;;;;18.33;11.63;;;7.30;55.00;;;;;;5045005;28;20191;-42
2021/03/24 01:20:02;;;;;;;15.90;10.60;;;7.00;55.20;;;;;;5045380;28;20438;-42
2021/03/24 01:22:28;;;;;;;18.50;12.00;;;6.80;56.00;;;;;;5043108;28;20427;-41
2021/03/24 01:24:54;;;;;;;14.93;10.80;;;6.70;56.70;;;;;;5047787;28;20437;-42
2021/03/24 01:27:20;;;;;;;16.77;10.97;;;6.60;56.80;;;;;;5038975;28;20200;-41
2021/03/24 01:29:45;;;;;;;18.23;10.90;;;6.80;56.50;;;;;;5048587;28;20628;-41
2021/03/24 01:32:11;;;;;;;14.90;10.40;;;6.90;56.30;;;;;;5045439;28;20275;-42
2021/03/24 01:34:36;;;;;;;13.47;9.73;;;7.00;56.00;;;;;;5042427;28;20652;-41
2021/03/24 01:37:02;;;;;;;17.63;11.50;;;6.90;55.70;;;;;;5048310;28;20193;-42
2021/03/24 01:39:28;;;;;;;17.13;10.73;;;6.70;56.20;;;;;;5044535;28;20197;-42
2021/03/24 01:41:54;;;;;;;16.93;10.77;;;6.60;56.30;;;;;;5041285;28;20519;-41
2021/03/24 01:44:19;;;;;;;16.90;11.87;;;6.60;56.40;;;;;;5043178;28;20508;-41
2021/03/24 01:46:47;;;;;;;17.07;10.90;;;6.50;56.70;;;;;;5041743;28;20200;-41
2021/03/24 01:49:28;;;;;;;13.90;10.40;;;6.60;56.80;;;;;;5047887;28;20228;-41
2021/03/24 01:52:04;;;;;;;18.80;10.40;;;6.50;56.50;;;;;;5050949;28;20423;-41
2021/03/24 01:54:37;;;;;;;19.83;10.80;;;6.50;56.60;;;;;;5043723;28;20442;-41
2021/03/24 01:57:25;;;;;;;13.90;10.13;;;6.60;56.60;;;;;;5043869;28;20426;-41
2021/03/24 01:59:52;;;;;;;16.20;11.30;;;6.50;56.30;;;;;;5047390;28;20470;-42
2021/03/24 02:02:25;;;;;;;16.27;10.40;;;6.30;56.70;;;;;;5053215;28;20442;-42
2021/03/24 02:04:52;;;;;;;18.77;11.10;;;6.30;56.90;;;;;;5039804;28;20471;-42
2021/03/24 02:07:31;;;;;;;16.13;11.50;;;6.20;57.30;;;;;;5043465;28;20471;-41
2021/03/24 02:10:07;;;;;;;18.20;10.30;;;6.30;57.10;;;;;;5051495;28;21292;-41
2021/03/24 02:12:50;;;;;;;16.13;11.00;;;6.40;56.80;;;;;;5052201;28;20450;-42
2021/03/24 02:15:25;;;;;;;16.10;11.27;;;6.60;56.50;;;;;;5039184;28;20436;-42
2021/03/24 02:17:52;;;;;;;14.37;10.37;;;6.70;55.90;;;;;;5041314;28;20435;-42
2021/03/24 02:20:24;;;;;;;17.03;11.33;;;6.80;55.60;;;;;;5045000;28;20962;-42
2021/03/24 02:22:54;;;;;;;17.60;10.23;;;6.80;55.30;;;;;;5037684;28;20478;-42
2021/03/24 02:25:42;;;;;;;16.97;11.50;;;6.80;55.60;;;;;;5053416;28;20442;-42
2021/03/24 02:28:12;;;;;;;17.63;10.80;;;6.80;55.60;;;;;;5046328;28;20530;-42
2021/03/24 02:30:41;;;;;;;16.47;11.27;;;6.80;55.70;;;;;;5040618;28;20955;-41
2021/03/24 02:33:13;;;;;;;16.30;11.40;;;6.80;55.80;;;;;;5052997;28;20466;-42
2021/03/24 02:35:43;;;;;;;18.30;12.20;;;6.80;55.80;;;;;;5042549;28;20450;-41
2021/03/24 02:38:10;;;;;;;16.50;10.50;;;6.80;55.60;;;;;;5052800;28;20475;-41
2021/03/24 02:40:38;;;;;;;18.33;11.60;;;6.70;55.40;;;;;;5052527;28;20523;-42
2021/03/24 02:43:06;;;;;;;19.67;10.70;;;6.70;55.70;;;;;;5038043;28;20439;-41
2021/03/24 02:45:35;;;;;;;22.17;11.50;;;6.50;56.20;;;;;;5050334;28;20431;-42
2021/03/24 02:48:16;;;;;;;17.30;11.77;;;6.50;56.30;;;;;;5046081;28;20909;-41
2021/03/24 02:50:44;;;;;;;15.30;10.43;;;6.30;56.40;;;;;;5053693;28;20427;-41
2021/03/24 02:53:10;;;;;;;17.27;12.43;;;6.30;56.60;;;;;;5052185;28;20767;-42
2021/03/24 02:55:39;;;;;;;18.37;11.77;;;6.20;56.70;;;;;;5053543;28;21316;-41
2021/03/24 02:58:04;;;;;;;17.53;11.67;;;6.00;57.10;;;;;;5045285;28;20926;-41
2021/03/24 03:00:30;;;;;;;22.70;12.30;;;6.10;56.90;;;;;;5051378;28;20442;-41
2021/03/24 03:03:00;;;;;;;20.13;11.87;;;6.20;56.70;;;;;;5045017;28;20578;-42
2021/03/24 03:05:32;;;;;;;18.13;11.70;;;6.20;56.50;;;;;;5044637;28;20488;-41
2021/03/24 03:08:28;;;;;;;18.20;12.40;;;6.30;56.40;;;;;;5052850;28;20486;-41
2021/03/24 03:11:06;;;;;;;20.17;12.93;;;6.30;56.20;;;;;;5041135;28;20456;-41
2021/03/24 03:13:36;;;;;;;17.30;11.47;;;5.90;56.80;;;;;;5040297;28;20513;-42
2021/03/24 03:16:16;;;;;;;18.27;11.93;;;6.00;57.00;;;;;;5048074;28;20522;-41
2021/03/24 03:18:49;;;;;;;16.67;11.83;;;6.10;56.70;;;;;;5047497;28;20549;-41
2021/03/24 03:21:22;;;;;;;18.17;12.20;;;6.20;56.50;;;;;;5049442;28;20455;-41
2021/03/24 03:23:50;;;;;;;17.40;11.53;;;6.10;56.40;;;;;;5051514;28;20879;-41
2021/03/24 03:26:22;;;;;;;19.07;12.50;;;6.10;56.70;;;;;;5051645;28;20463;-41
2021/03/24 03:28:53;;;;;;;17.40;11.27;;;6.00;56.50;;;;;;5041989;28;20530;-41
2021/03/24 03:31:23;;;;;;;18.50;11.60;;;6.00;56.90;;;;;;5044383;28;20526;-42
2021/03/24 03:33:51;;;;;;;15.20;10.90;;;6.00;57.00;;;;;;5049629;28;20994;-41
2021/03/24 03:36:17;;;;;;;16.77;11.33;;;6.10;56.70;;;;;;5050425;28;20485;-42
2021/03/24 03:38:45;;;;;;;16.73;12.43;;;6.00;56.80;;;;;;5046293;28;20799;-41
2021/03/24 03:41:13;;;;;;;25.40;12.57;;;5.90;57.00;;;;;;5048242;28;20455;-42
2021/03/24 03:43:45;;;;;;;19.10;11.80;;;6.00;57.10;;;;;;5051391;28;20430;-41
2021/03/24 03:46:17;;;;;;;17.30;10.30;;;5.90;57.00;;;;;;5047580;28;20444;-41
2021/03/24 03:48:47;;;;;;;17.33;12.17;;;5.70;57.20;;;;;;5050088;28;20491;-41
2021/03/24 03:51:38;;;;;;;14.90;11.23;;;5.70;57.40;;;;;;5044849;28;20428;-41
2021/03/24 03:54:16;;;;;;;15.90;10.73;;;5.50;57.70;;;;;;5045686;28;20443;-41
2021/03/24 03:56:55;;;;;;;15.83;11.03;;;5.40;57.80;;;;;;5050373;28;20529;-41
2021/03/24 03:59:28;;;;;;;19.17;11.80;;;5.40;57.90;;;;;;5052251;28;20427;-41
2021/03/24 04:01:58;;;;;;;20.07;11.57;;;5.50;57.90;;;;;;5049103;28;20435;-42
2021/03/24 04:04:38;;;;;;;17.93;11.83;;;5.40;58.10;;;;;;5049045;28;20466;-41
2021/03/24 04:07:19;;;;;;;15.23;10.67;;;5.50;57.90;;;;;;5051212;28;20489;-41
2021/03/24 04:09:47;;;;;;;19.23;12.20;;;5.60;57.80;;;;;;5048979;28;20446;-41
2021/03/24 04:12:15;;;;;;;18.70;11.53;;;5.50;58.20;;;;;;5047997;28;20409;-41
2021/03/24 04:14:43;;;;;;;19.03;11.77;;;5.50;57.60;;;;;;5049522;28;20915;-41
2021/03/24 04:17:19;;;;;;;17.30;11.50;;;5.40;57.80;;;;;;5049520;28;20434;-41
2021/03/24 04:19:49;;;;;;;21.40;12.60;;;5.50;57.70;;;;;;5047280;28;20885;-41
2021/03/24 04:22:18;;;;;;;16.10;11.13;;;5.60;57.60;;;;;;5052553;28;20898;-41
2021/03/24 04:24:47;;;;;;;21.90;12.60;;;5.60;57.10;;;;;;5039103;28;20433;-41
2021/03/24 04:27:15;;;;;;;16.77;11.67;;;5.70;57.50;;;;;;5049754;28;20825;-41
2021/03/24 04:29:46;;;;;;;19.87;12.60;;;5.60;57.40;;;;;;5048102;28;20538;-41
2021/03/24 04:32:13;;;;;;;18.43;10.50;;;5.20;58.00;;;;;;5047973;28;20493;-41
2021/03/24 04:34:39;;;;;;;20.07;12.20;;;5.00;58.60;;;;;;5046577;28;20442;-41
2021/03/24 04:37:40;;;;;;;18.00;11.77;;;5.20;58.90;;;;;;5044739;28;20415;-41
2021/03/24 04:40:28;;;;;;;20.07;11.83;;;5.30;58.70;;;;;;5048477;28;21273;-41
2021/03/24 04:43:01;;;;;;;22.83;12.37;;;5.40;58.00;;;;;;5048809;28;20455;-41
2021/03/24 04:45:44;;;;;;;21.50;12.97;;;5.40;58.00;;;;;;5048084;28;20446;-41
2021/03/24 04:48:25;;;;;;;18.60;12.80;;;5.30;58.00;;;;;;5042150;28;20490;-41
2021/03/24 04:51:02;;;;;;;21.10;12.23;;;5.30;58.40;;;;;;5049009;28;20518;-41
2021/03/24 04:53:32;;;;;;;16.17;11.13;;;5.40;58.40;;;;;;5048106;28;20930;-41
2021/03/24 04:56:00;;;;;;;20.87;13.60;;;5.60;57.80;;;;;;5042892;28;20432;-41
2021/03/24 04:58:38;;;;;;;14.67;11.00;;;5.50;57.70;;;;;;5047296;28;20423;-41
2021/03/24 05:01:14;;;;;;;20.43;13.13;;;5.30;57.80;;;;;;5046282;28;20441;-41
2021/03/24 05:03:43;;;;;;;18.10;12.43;;;5.00;58.50;;;;;;5047095;28;20802;-41
2021/03/24 05:06:32;;;;;;;19.73;13.33;;;4.80;59.00;;;;;;5049552;28;20569;-41
2021/03/24 05:09:00;;;;;;;18.47;12.77;;;4.40;60.60;;;;;;5051704;28;20487;-41
2021/03/24 05:11:39;;;;;;;18.70;12.87;;;4.10;62.70;;;;;;5046304;28;20439;-41
2021/03/24 05:14:27;;;;;;;20.93;12.67;;;4.10;62.60;;;;;;5042625;28;20431;-41
2021/03/24 05:17:09;;;;;;;22.90;13.07;;;4.20;62.30;;;;;;5049065;28;20466;-42
2021/03/24 05:19:35;;;;;;;19.33;12.53;;;4.30;62.00;;;;;;5048755;28;20439;-41
2021/03/24 05:22:29;;;;;;;20.70;12.00;;;4.50;61.40;;;;;;5044899;28;20923;-41
2021/03/24 05:25:17;;;;;;;18.23;12.70;;;4.80;60.20;;;;;;5041673;28;20651;-41
2021/03/24 05:27:47;;;;;;;20.63;12.83;;;4.40;60.10;;;;;;5042994;28;20470;-41
2021/03/24 05:30:16;;;;;;;19.57;12.40;;;4.50;60.70;;;;;;5035273;28;20535;-41
2021/03/24 05:32:44;;;;;;;20.10;12.40;;;4.80;60.50;;;;;;5048797;28;20485;-41
2021/03/24 05:35:42;;;;;;;18.77;12.57;;;5.10;59.70;;;;;;5050277;28;20510;-42
2021/03/24 05:38:34;;;;;;;19.27;13.23;;;5.20;59.00;;;;;;5051509;28;20442;-41
2021/03/24 05:41:14;;;;;;;21.77;12.20;;;5.30;58.70;;;;;;5043294;28;20832;-41
2021/03/24 05:44:13;;;;;;;19.90;12.47;;;5.40;58.30;;;;;;5049098;28;20863;-41
2021/03/24 05:47:13;;;;;;;18.90;12.83;;;5.20;59.10;;;;;;5054620;28;20772;-41
2021/03/24 05:50:16;;;;;;;19.27;11.60;;;5.30;58.60;;;;;;5041118;28;20533;-41
2021/03/24 05:53:14;;;;;;;17.20;13.03;;;5.10;58.70;;;;;;5045003;28;20805;-41
2021/03/24 05:56:06;;;;;;;20.50;12.97;;;5.20;59.00;;;;;;5042717;28;20442;-41
2021/03/24 05:58:47;;;;;;;20.23;13.93;;;5.20;59.00;;;;;;5049735;28;20517;-41
2021/03/24 06:01:18;;;;;;;19.70;14.17;;;5.20;59.00;;;;;;5038275;28;20943;-41
2021/03/24 06:04:03;;;;;;;22.07;14.50;;;5.20;58.90;;;;;;5050811;28;20802;-41
2021/03/24 06:07:05;;;;;;;18.97;12.70;;;5.10;59.10;;;;;;5044378;28;20474;-41
2021/03/24 06:10:05;;;;;;;19.67;13.27;;;5.10;59.70;;;;;;5054097;28;20506;-41
2021/03/24 06:12:52;;;;;;;18.00;12.53;;;5.30;59.30;;;;;;5052093;28;20442;-41
2021/03/24 06:15:23;;;;;;;20.03;13.40;;;5.20;59.40;;;;;;5045451;28;20443;-41
2021/03/24 06:17:48;;;;;;;18.77;13.37;;;5.50;61.80;;;;;;5051243;28;20438;-40
2021/03/24 06:20:39;;;;;;;20.27;11.73;;;6.00;61.10;;;;;;5049787;28;20819;-40
2021/03/24 06:23:37;;;;;;;19.50;12.30;;;6.40;59.80;;;;;;5052838;28;20528;-40
2021/03/24 06:26:34;;;;;;;19.20;11.33;;;6.30;58.60;;;;;;5046842;28;20449;-41
2021/03/24 06:29:12;;;;;;;18.43;11.17;;;6.50;58.00;;;;;;5038219;28;21319;-41
2021/03/24 06:31:55;;;;;;;15.83;10.83;;;6.80;57.80;;;;;;5052670;28;20449;-40
2021/03/24 06:34:52;;;;;;;19.17;13.20;;;6.80;56.90;;;;;;5049621;28;20443;-41
2021/03/24 06:37:51;;;;;;;18.87;12.23;;;7.10;57.20;;;;;;5035878;28;20526;-41
2021/03/24 06:40:19;;;;;;;16.97;11.50;;;7.20;56.00;;;;;;5050455;28;20443;-41
2021/03/24 06:43:17;;;;;;;19.93;12.80;;;7.20;55.40;;;;;;5051831;28;20431;-41
2021/03/24 06:46:01;;;;;;;18.20;13.07;;;7.40;56.20;;;;;;5038708;28;20434;-40
2021/03/24 06:48:29;;;;;;;17.93;12.10;;;7.60;55.80;;;;;;5042072;28;20494;-41
2021/03/24 06:51:06;;;;;;;14.40;12.13;;;8.00;54.90;;;;;;5032072;28;20495;-41
2021/03/24 06:53:44;;;;;;;18.60;13.83;;;8.10;54.20;;;;;;5047354;28;20442;-41
2021/03/24 06:56:43;;;;;;;19.30;12.97;;;8.00;53.70;;;;;;5048491;28;21000;-41
2021/03/24 06:59:39;;;;;;;16.47;11.30;;;8.20;54.30;;;;;;5043267;28;20857;-41
2021/03/24 07:02:14;;;;;;;18.10;13.30;;;8.10;54.00;;;;;;5047227;28;20790;-41
2021/03/24 07:05:10;;;;;;;19.27;13.80;;;8.50;54.00;;;;;;5046912;28;20423;-41
2021/03/24 07:08:00;;;;;;;21.70;14.13;;;8.70;52.90;;;;;;5044543;28;20506;-41
2021/03/24 07:10:44;;;;;;;24.80;13.30;;;8.90;52.70;;;;;;5049509;28;20436;-41
2021/03/24 07:13:12;;;;;;;21.20;13.87;;;8.80;53.00;;;;;;5051998;28;20431;-41
2021/03/24 07:15:56;;;;;;;20.03;13.70;;;8.80;53.30;;;;;;5053362;28;21032;-41
2021/03/24 07:18:56;;;;;;;20.70;13.30;;;8.90;53.20;;;;;;5045727;28;20432;-41
2021/03/24 07:21:50;;;;;;;18.13;14.40;;;9.10;53.30;;;;;;5048646;28;20527;-41
2021/03/24 07:24:40;;;;;;;17.77;13.00;;;9.40;52.60;;;;;;5043717;28;20455;-41
2021/03/24 07:27:50;;;;;;;20.40;13.70;;;9.80;52.10;;;;;;5036730;28;20515;-41
2021/03/24 07:30:38;;;;;;;19.80;14.80;;;10.20;50.20;;;;;;5037369;28;20448;-41
2021/03/24 07:33:17;;;;;;;23.33;14.93;;;10.50;49.20;;;;;;5034667;28;20448;-41
2021/03/24 07:36:13;;;;;;;21.20;15.13;;;10.40;49.90;;;;;;5047441;28;21172;-41
2021/03/24 07:39:03;;;;;;;20.33;14.47;;;11.00;49.40;;;;;;5038672;28;20510;-41
2021/03/24 07:41:47;;;;;;;15.43;13.43;;;11.50;48.30;;;;;;5046933;28;20432;-41
2021/03/24 07:44:43;;;;;;;19.23;14.70;;;11.80;47.60;;;;;;5050537;28;20438;-41
2021/03/24 07:47:30;;;;;;;20.47;16.00;;;12.00;47.20;;;;;;5046057;28;20540;-41
2021/03/24 07:50:20;;;;;;;20.43;16.00;;;12.20;47.00;;;;;;5040195;28;20483;-41
2021/03/24 07:52:56;;;;;;;20.40;15.53;;;12.40;46.80;;;;;;5043917;28;20435;-41
2021/03/24 07:55:35;;;;;;;24.27;15.20;;;12.60;45.90;;;;;;5045489;28;20478;-41
2021/03/24 07:58:24;;;;;;;27.07;16.50;;;12.80;45.30;;;;;;5050180;28;20870;-41
2021/03/24 08:01:18;;;;;;;21.60;15.13;;;12.60;45.70;;;;;;5041461;28;20439;-41
2021/03/24 08:04:05;;;;;;;16.57;14.00;;;12.80;45.60;;;;;;5040860;28;21013;-41
2021/03/24 08:06:52;;;;;;;16.20;13.53;;;12.80;45.20;;;;;;5038274;28;20479;-42
2021/03/24 08:09:37;;;;;;;18.83;14.97;;;12.70;45.40;;;;;;5043926;28;20490;-42
2021/03/24 08:12:30;;;;;;;19.60;14.70;;;13.00;45.80;;;;;;5038940;28;20560;-42
2021/03/24 08:15:32;;;;;;;20.57;15.60;;;13.40;45.40;;;;;;5042270;28;20446;-41
2021/03/24 08:18:06;;;;;;;17.80;14.10;;;13.60;44.40;;;;;;5047318;28;20487;-41
2021/03/24 08:21:04;;;;;;;19.27;14.23;;;13.80;44.20;;;;;;5048970;28;20449;-41
2021/03/24 08:23:51;;;;;;;18.63;14.20;;;14.00;43.70;;;;;;5032877;28;20492;-41
2021/03/24 08:26:25;;;;;;;17.13;13.53;;;14.20;43.50;;;;;;5036564;28;20489;-41
2021/03/24 08:29:12;;;;;;;18.30;13.63;;;14.30;43.50;;;;;;5038065;28;20483;-41
2021/03/24 08:32:02;;;;;;;17.53;12.97;;;14.50;42.70;;;;;;5044653;28;20489;-41
2021/03/24 08:35:02;;;;;;;20.93;14.47;;;14.50;42.20;;;;;;5038517;28;20446;-41
2021/03/24 08:37:36;;;;;;;17.20;13.23;;;14.40;42.10;;;;;;5043257;28;20808;-41
2021/03/24 08:40:20;;;;;;;17.20;13.03;;;14.60;42.20;;;;;;5037850;28;20462;-41
2021/03/24 08:43:12;;;;;;;15.70;12.80;;;14.60;41.60;;;;;;5037488;28;20435;-41
2021/03/24 08:45:38;;;;;;;17.70;14.80;;;14.70;42.20;;;;;;5049126;28;20446;-41
2021/03/24 08:48:14;;;;;;;17.93;14.43;;;14.90;41.80;;;;;;5037303;28;20475;-42
2021/03/24 08:50:45;;;;;;;18.73;15.80;;;15.00;41.50;;;;;;5049780;28;20206;-43
2021/03/24 08:53:35;;;;;;;17.57;14.40;;;15.00;42.00;;;;;;5051649;28;20422;-42
2021/03/24 08:56:15;;;;;;;18.33;15.33;;;14.90;41.60;;;;;;5049067;28;20431;-42
2021/03/24 08:58:50;;;;;;;18.37;14.70;;;14.80;41.50;;;;;;5041374;28;20853;-42
2021/03/24 09:01:54;;;;;;;18.43;15.60;;;14.90;41.70;;;;;;5048440;28;20422;-41
2021/03/24 09:04:41;;;;;;;18.50;14.50;;;15.10;41.30;;;;;;5039720;28;20443;-42
2021/03/24 09:07:29;;;;;;;17.80;14.10;;;15.20;41.60;;;;;;5036957;28;20475;-42
2021/03/24 09:10:06;;;;;;;17.63;14.40;;;15.20;41.20;;;;;;5033905;28;20517;-43
2021/03/24 09:12:57;;;;;;;17.13;14.70;;;15.30;41.30;;;;;;5036190;28;20480;-41
2021/03/24 09:15:43;;;;;;;21.63;15.50;;;15.50;40.90;;;;;;5038641;28;20926;-42
2021/03/24 09:18:37;;;;;;;19.40;15.60;;;15.60;41.30;;;;;;5049056;28;20451;-42
2021/03/24 09:21:27;;;;;;;16.83;14.20;;;15.80;40.70;;;;;;5046588;28;20451;-42
2021/03/24 09:23:55;;;;;;;16.27;14.47;;;16.00;40.60;;;;;;5040396;28;20447;-42
2021/03/24 09:27:00;;;;;;;17.07;14.43;;;16.20;40.60;;;;;;5047538;28;20439;-42
2021/03/24 09:29:56;;;;;;;19.60;14.13;;;16.40;39.80;;;;;;5038895;28;21284;-42
2021/03/24 09:32:21;;;;;;;18.90;13.23;;;16.70;39.40;;;;;;5047442;28;20455;-44
2021/03/24 09:34:47;;;;;;;17.60;13.53;;;16.60;39.20;;;;;;5047778;28;20446;-43
2021/03/24 09:37:18;;;;;;;18.93;13.83;;;16.60;38.60;;;;;;5049545;28;20193;-44
2021/03/24 09:40:01;;;;;;;18.30;13.37;;;16.70;38.50;;;;;;5048740;28;20326;-43
2021/03/24 09:42:39;;;;;;;14.10;12.60;;;16.90;38.10;;;;;;5039401;28;21124;-43
2021/03/24 09:45:14;;;;;;;17.07;12.90;;;16.80;37.40;;;;;;5035763;28;20780;-41
2021/03/24 09:47:48;;;;;;;21.17;15.10;;;16.90;37.60;;;;;;5044058;28;20461;-41
2021/03/24 09:50:33;;;;;;;20.70;13.93;;;17.00;37.40;;;;;;5036713;28;20942;-41
2021/03/24 09:53:06;;;;;;;17.43;13.80;;;16.80;37.50;;;;;;5031873;28;20439;-41
2021/03/24 09:55:34;;;;;;;15.17;12.00;;;16.90;38.30;;;;;;5048471;28;20435;-41
2021/03/24 09:58:03;;;;;;;17.57;13.60;;;17.10;38.00;;;;;;5030697;28;20450;-42
2021/03/24 10:00:30;;;;;;;18.90;13.60;;;17.40;37.80;;;;;;5047057;28;20439;-44
2021/03/24 10:03:15;;;;;;;20.43;12.83;;;17.60;37.60;;;;;;5032163;28;20975;-41
2021/03/24 10:05:51;;;;;;;18.10;13.30;;;17.80;37.40;;;;;;5037461;28;20443;-41
2021/03/24 10:08:25;;;;;;;19.10;13.63;;;18.00;37.10;;;;;;5046300;28;20573;-42
2021/03/24 10:10:52;;;;;;;18.43;12.50;;;18.10;36.30;;;;;;5045306;28;20432;-42
2021/03/24 10:13:28;;;;;;;13.90;11.50;;;18.20;36.30;;;;;;5039912;28;20493;-43
2021/03/24 10:16:01;;;;;;;17.07;13.63;;;18.20;36.30;;;;;;5046608;28;20466;-41
2021/03/24 10:18:30;;;;;;;14.47;12.43;;;18.40;36.40;;;;;;5044819;28;20449;-42
2021/03/24 10:21:08;;;;;;;17.77;12.73;;;18.40;35.90;;;;;;5047280;28;20457;-43
2021/03/24 10:23:45;;;;;;;22.90;13.50;;;18.40;36.10;;;;;;5049897;28;20451;-42
2021/03/24 10:26:16;;;;;;;16.00;13.27;;;18.40;35.90;;;;;;5048534;28;20454;-42
2021/03/24 10:28:50;;;;;;;19.80;12.73;;;18.40;36.10;;;;;;5048315;28;20499;-42
2021/03/24 10:31:37;;;;;;;15.33;12.23;;;18.30;36.10;;;;;;5043359;28;20438;-42
2021/03/24 10:34:47;;;;;;;15.40;12.53;;;18.50;35.80;;;;;;5049398;28;20435;-42
2021/03/24 10:37:52;;;;;;;15.50;12.00;;;18.70;35.20;;;;;;5037989;28;20439;-42
2021/03/24 10:40:26;;;;;;;14.13;12.27;;;18.90;35.50;;;;;;5046525;28;20450;-43
2021/03/24 10:43:16;;;;;;;14.13;11.47;;;19.00;34.90;;;;;;5049087;28;20516;-42
2021/03/24 10:46:00;;;;;;;19.83;12.97;;;19.10;35.10;;;;;;5048759;28;20516;-42
2021/03/24 10:48:52;;;;;;;18.70;12.07;;;19.20;34.80;;;;;;5044381;28;20486;-42
2021/03/24 10:51:40;;;;;;;14.03;11.60;;;19.50;34.90;;;;;;5047810;28;20565;-43
2021/03/24 10:54:18;;;;;;;16.07;11.77;;;19.50;34.30;;;;;;5047516;28;20509;-43
2021/03/24 10:57:11;;;;;;;14.03;11.53;;;19.70;34.80;;;;;;5046344;28;20910;-42
2021/03/24 11:00:18;;;;;;;15.27;11.93;;;19.70;35.10;;;;;;5039689;28;20442;-42
2021/03/24 11:02:50;;;;;;;14.43;11.83;;;19.80;33.90;;;;;;5044336;28;20474;-42
2021/03/24 11:05:25;;;;;;;13.43;11.23;;;19.90;34.10;;;;;;5054939;28;20430;-42
2021/03/24 11:07:53;;;;;;;13.70;12.20;;;19.90;33.10;;;;;;5046594;28;20466;-42
2021/03/24 11:10:37;;;;;;;11.80;10.27;;;19.90;33.20;;;;;;5045633;28;20445;-44
2021/03/24 11:13:20;;;;;;;16.43;11.20;;;20.00;33.60;;;;;;5048131;28;20486;-42
2021/03/24 11:16:08;;;;;;;12.07;10.77;;;20.10;32.80;;;;;;5048827;28;21214;-42
2021/03/24 11:18:47;;;;;;;12.90;11.03;;;20.30;33.60;;;;;;5049770;28;20435;-42
2021/03/24 11:21:27;;;;;;;12.73;10.80;;;20.40;33.10;;;;;;5048926;28;20439;-43
2021/03/24 11:24:14;;;;;;;12.37;11.07;;;20.50;33.90;;;;;;5047638;28;20438;-42
2021/03/24 11:27:04;;;;;;;12.73;10.70;;;20.60;33.00;;;;;;5044459;28;20475;-42
2021/03/24 11:29:32;;;;;;;18.00;11.67;;;20.60;32.30;;;;;;5045746;28;20497;-43
2021/03/24 11:32:26;;;;;;;15.80;11.63;;;20.50;32.70;;;;;;5046214;28;20427;-44
2021/03/24 11:35:01;;;;;;;14.67;11.87;;;20.80;33.40;;;;;;5050157;28;20435;-44
2021/03/24 11:37:40;;;;;;;13.20;11.40;;;21.00;32.70;;;;;;5045821;28;20459;-43
2021/03/24 11:40:35;;;;;;;11.40;9.73;;;21.30;32.50;;;;;;5050289;28;20427;-43
2021/03/24 11:43:07;;;;;;;13.33;10.10;;;21.60;33.50;;;;;;5038483;28;20439;-42
2021/03/24 11:45:35;;;;;;;15.17;12.30;;;21.70;32.50;;;;;;5046092;28;20433;-42
2021/03/24 11:48:35;;;;;;;14.83;12.50;;;21.70;32.20;;;;;;5047662;28;20470;-42
2021/03/24 11:51:48;;;;;;;13.00;11.23;;;21.80;32.80;;;;;;5046609;28;20447;-42
2021/03/24 11:54:27;;;;;;;12.83;11.20;;;22.10;32.20;;;;;;5029949;28;20465;-43
2021/03/24 11:57:28;;;;;;;12.70;10.63;;;22.30;31.00;;;;;;5046326;28;20431;-44
2021/03/24 12:00:18;;;;;;;11.43;9.50;;;22.20;31.10;;;;;;5037715;28;20448;-42
2021/03/24 12:02:50;;;;;;;12.23;9.37;;;22.20;32.00;;;;;;5042658;28;20439;-44
2021/03/24 12:05:30;;;;;;;11.97;10.03;;;22.20;31.70;;;;;;5052376;28;20439;-43
2021/03/24 12:08:18;;;;;;;8.93;8.00;;;22.20;30.90;;;;;;5042776;28;20486;-42
2021/03/24 12:10:58;;;;;;;11.80;9.70;;;22.10;30.80;;;;;;5046545;28;20439;-42
2021/03/24 12:13:30;;;;;;;9.70;8.20;;;22.10;30.80;;;;;;5040718;28;20781;-44
2021/03/24 12:16:08;;;;;;;9.13;8.20;;;22.50;30.80;;;;;;5045179;28;20427;-46
2021/03/24 12:18:50;;;;;;;11.70;8.93;;;22.60;31.10;;;;;;5043271;28;20524;-44
2021/03/24 12:21:24;;;;;;;10.93;9.70;;;22.80;30.50;;;;;;5048375;28;20443;-42
2021/03/24 12:23:53;;;;;;;8.80;7.40;;;22.70;29.40;;;;;;5046803;28;20433;-42
2021/03/24 12:26:36;;;;;;;7.10;6.40;;;22.80;29.90;;;;;;5046157;28;20440;-43
2021/03/24 12:29:12;;;;;;;11.83;8.20;;;23.00;30.70;;;;;;5043731;28;20482;-42
2021/03/24 12:32:02;;;;;;;10.73;9.60;;;23.30;30.00;;;;;;5049461;28;20445;-42
2021/03/24 12:34:30;;;;;;;8.07;7.27;;;23.50;29.00;;;;;;5047792;28;20443;-42
2021/03/24 12:37:01;;;;;;;9.33;8.03;;;23.70;30.10;;;;;;5047113;28;20948;-42
2021/03/24 12:39:35;;;;;;;7.20;6.07;;;23.90;29.50;;;;;;5049280;28;20435;-43
2021/03/24 12:42:25;;;;;;;10.30;9.10;;;24.10;29.60;;;;;;5043892;28;20462;-44
2021/03/24 12:44:51;;;;;;;9.87;7.20;;;24.30;28.10;;;;;;5041711;28;20951;-44
2021/03/24 12:47:26;;;;;;;10.50;8.50;;;24.30;28.20;;;;;;5046689;28;20778;-42
2021/03/24 12:50:15;;;;;;;8.67;7.80;;;24.40;28.90;;;;;;5039404;28;20490;-43
2021/03/24 12:53:07;;;;;;;12.30;8.90;;;24.50;28.40;;;;;;5046333;28;20438;-44
2021/03/24 12:55:34;;;;;;;11.73;10.53;;;24.50;28.40;;;;;;5044017;28;20457;-43
2021/03/24 12:58:06;;;;;;;10.97;9.37;;;24.40;28.20;;;;;;5040331;28;20842;-42
2021/03/24 13:00:43;;;;;;;13.60;9.63;;;24.10;27.30;;;;;;5042022;28;20435;-44
2021/03/24 13:03:30;;;;;;;11.60;10.40;;;24.00;28.10;;;;;;5044344;28;20468;-43
2021/03/24 13:06:21;;;;;;;12.03;10.00;;;23.70;27.90;;;;;;5046598;28;20830;-45
2021/03/24 13:09:29;;;;;;;10.53;8.70;;;23.40;28.30;;;;;;5045610;28;20479;-44
2021/03/24 13:12:07;;;;;;;10.20;9.13;;;23.30;28.40;;;;;;5047877;28;20442;-44
2021/03/24 13:14:41;;;;;;;12.20;9.10;;;23.10;28.70;;;;;;5047097;28;20482;-42
2021/03/24 13:17:19;;;;;;;11.33;8.63;;;23.20;29.10;;;;;;5042584;28;20442;-42
2021/03/24 13:20:02;;;;;;;10.80;9.20;;;23.30;28.90;;;;;;5044126;28;20466;-43
2021/03/24 13:23:01;;;;;;;14.63;10.00;;;23.40;28.70;;;;;;5045819;28;20431;-42
2021/03/24 13:25:51;;;;;;;13.47;8.90;;;23.50;28.10;;;;;;5043833;28;20915;-43
2021/03/24 13:28:45;;;;;;;12.17;9.50;;;23.60;28.20;;;;;;5041128;28;20557;-43
2021/03/24 13:31:34;;;;;;;9.97;8.97;;;23.70;28.10;;;;;;5044975;28;20431;-43